Greenbrier, Arkansas
Current Conditions -  °F | °C
As of 3:58 AM on Monday 20 Oct 2014 (Local Time) from KLRF Reporting Station
Broken Clouds Broken Clouds  
Wind Chill:   Ceiling: 17000
Heat Index:   Visibility: 10mi
Dew Point:   Wind: 0mph
Humidity: 93%   Direction: NA
Pressure: 30.07"   Gusts: NA
Location:  35.23°N, 92.39°W
Report Text: KLRF 200858Z AUTO 00000KT 10SM BKN170 08/07 A3007 RMK AO2 SLP185 T00750065 57009
Loading
Personal Weather Stations






























Interactive Weather Map
Tropical Storm Tracking
New forecast layout! Learn more

10-Day Weather Forecast

Advertisements
Track Severe Weather on mobile